Time;durP1;ratioP1;P1;durP2;ratioP2;P2;SDS_P1;SDS_P2;PMS_P1;PMS_P2;Temp;Humidity;BMP_temperature;BMP_pressure;BME280_temperature;BME280_humidity;BME280_pressure;Samples;Min_cycle;Max_cycle;Signal;HPM_P1;HPM_P2
2021/05/01 00:01:09;;;;;;;14.13;5.97;;;8.10;99.90;;;9.15;76.23;101041.22;5064149;28;20204;-72
2021/05/01 00:03:35;;;;;;;17.02;5.85;;;8.10;99.90;;;9.17;75.99;101030.75;5065399;28;20184;-71
2021/05/01 00:06:02;;;;;;;13.73;6.05;;;8.10;99.90;;;9.15;76.12;101027.31;5057884;28;20211;-72
2021/05/01 00:08:29;;;;;;;16.10;5.85;;;8.10;99.90;;;9.11;76.06;101029.13;5064553;28;20192;-72
2021/05/01 00:10:58;;;;;;;17.38;6.65;;;8.10;99.90;;;9.12;76.11;101030.88;5067279;28;20249;-71
2021/05/01 00:13:25;;;;;;;16.55;6.22;;;8.10;99.90;;;9.10;76.18;101030.06;5058439;28;20692;-73
2021/05/01 00:15:51;;;;;;;15.48;6.25;;;8.10;99.90;;;9.10;76.37;101027.44;5062773;28;20211;-72
2021/05/01 00:18:18;;;;;;;16.40;6.90;;;8.10;99.90;;;9.12;76.43;101025.66;5068988;28;20200;-73
2021/05/01 00:20:44;;;;;;;18.15;6.97;;;8.10;99.90;;;9.15;76.30;101019.47;5068157;28;20212;-72
2021/05/01 00:23:11;;;;;;;15.98;7.32;;;8.10;99.90;;;9.14;76.45;101018.66;5053720;28;21197;-72
2021/05/01 00:25:37;;;;;;;15.40;6.80;;;8.10;99.90;;;9.17;76.38;101018.56;5055158;28;20552;-72
2021/05/01 00:28:04;;;;;;;13.18;6.15;;;8.10;99.90;;;9.20;76.30;101018.47;5072513;28;20188;-72
2021/05/01 00:30:30;;;;;;;13.65;6.70;;;8.10;99.90;;;9.20;76.19;101021.06;5053123;28;20204;-72
2021/05/01 00:32:57;;;;;;;15.73;6.90;;;8.10;99.90;;;9.18;75.96;101017.66;5062811;28;20203;-72
2021/05/01 00:35:25;;;;;;;14.98;6.55;;;8.10;99.90;;;9.18;76.14;101019.38;5055965;28;20211;-72
2021/05/01 00:37:51;;;;;;;15.40;6.85;;;8.10;99.90;;;9.19;76.30;101024.59;5064500;28;20553;-72
2021/05/01 00:40:18;;;;;;;13.63;6.78;;;8.10;99.90;;;9.17;76.13;101022.91;5068176;28;20221;-71
2021/05/01 00:42:44;;;;;;;16.20;6.82;;;8.20;99.90;;;9.18;76.10;101015.03;5059767;28;20243;-72
2021/05/01 00:45:11;;;;;;;15.75;7.03;;;8.20;99.90;;;9.18;76.34;101017.66;5053545;28;20193;-73
2021/05/01 00:47:37;;;;;;;16.00;6.93;;;8.20;99.90;;;9.20;76.19;101020.22;5067952;28;20200;-72
2021/05/01 00:50:05;;;;;;;15.95;7.45;;;8.20;99.90;;;9.19;76.53;101032.44;5058624;28;20209;-68
2021/05/01 00:52:34;;;;;;;17.05;7.20;;;8.20;99.90;;;9.21;76.11;101030.59;5056374;28;20188;-73
2021/05/01 00:55:03;;;;;;;16.02;7.03;;;8.30;99.90;;;9.22;76.38;101027.13;5058210;28;20221;-72
2021/05/01 00:57:30;;;;;;;16.38;7.13;;;8.30;99.90;;;9.23;76.64;101020.13;5068254;28;20201;-72
2021/05/01 00:59:57;;;;;;;14.10;7.03;;;8.40;99.90;;;9.24;76.08;101019.25;5068034;28;20315;-73
2021/05/01 01:02:27;;;;;;;17.55;7.43;;;8.40;99.90;;;9.24;76.61;101017.50;5068352;28;20253;-72
2021/05/01 01:04:54;;;;;;;16.60;7.00;;;8.40;99.90;;;9.25;76.38;101011.38;5061252;28;20245;-72
2021/05/01 01:07:22;;;;;;;15.68;6.97;;;8.50;99.90;;;9.29;76.41;101012.13;5068899;28;20609;-73
2021/05/01 01:09:50;;;;;;;17.38;7.65;;;8.50;99.90;;;9.27;76.27;101014.78;5083596;28;20204;-73
2021/05/01 01:12:17;;;;;;;14.75;7.10;;;8.50;99.90;;;9.27;76.52;101020.00;5063415;28;20262;-72
2021/05/01 01:14:44;;;;;;;18.75;8.10;;;8.50;99.90;;;9.28;76.58;101015.63;5068270;28;20718;-72
2021/05/01 01:17:11;;;;;;;17.17;7.25;;;8.50;99.90;;;9.29;76.53;101018.22;5069022;28;20215;-73
2021/05/01 01:19:38;;;;;;;19.33;7.20;;;8.50;99.90;;;9.30;76.44;101024.28;5075123;28;20199;-70
2021/05/01 01:22:13;;;;;;;19.60;7.93;;;8.50;99.90;;;9.28;76.52;101016.50;5073039;28;20202;-73
2021/05/01 01:24:40;;;;;;;17.42;7.57;;;8.50;99.90;;;9.24;76.55;101014.88;5064439;28;20191;-72
2021/05/01 01:27:08;;;;;;;13.98;6.30;;;8.50;99.90;;;9.21;77.22;101017.56;5068145;28;20199;-71
2021/05/01 01:29:38;;;;;;;15.48;6.82;;;8.50;99.90;;;9.17;77.02;101018.56;5062508;28;20188;-71
2021/05/01 01:32:06;;;;;;;17.65;6.97;;;8.50;99.90;;;9.16;77.10;101014.22;5066096;28;20193;-72
2021/05/01 01:34:32;;;;;;;17.45;7.28;;;8.50;99.90;;;9.16;77.08;101019.44;5068367;28;20192;-72
2021/05/01 01:36:59;;;;;;;15.02;7.22;;;8.40;99.90;;;9.17;76.96;101021.16;5076599;28;20219;-72
2021/05/01 01:39:27;;;;;;;17.77;7.75;;;8.40;99.90;;;9.17;76.47;101029.00;5061545;28;20212;-72
2021/05/01 01:41:53;;;;;;;17.02;7.18;;;8.30;99.90;;;9.16;76.67;101031.66;5076077;28;20759;-72
2021/05/01 01:44:20;;;;;;;18.58;7.82;;;8.30;99.90;;;9.12;76.72;101025.66;5067375;28;20197;-71
2021/05/01 01:46:46;;;;;;;17.77;8.02;;;8.30;99.90;;;9.13;77.19;101027.34;5070730;28;20672;-72
2021/05/01 01:49:12;;;;;;;16.83;7.78;;;8.30;99.90;;;9.16;77.00;101026.44;5060865;28;20203;-72
2021/05/01 01:51:39;;;;;;;17.40;7.13;;;8.30;99.90;;;9.17;76.89;101033.34;5063871;28;20208;-73
2021/05/01 01:54:06;;;;;;;17.15;7.05;;;8.30;99.90;;;9.17;76.85;101038.56;5068196;28;20185;-72
2021/05/01 01:56:37;;;;;;;16.52;6.82;;;8.30;99.90;;;9.20;76.98;101038.47;5072414;28;20684;-71
2021/05/01 01:59:04;;;;;;;19.67;8.30;;;8.20;99.90;;;9.19;76.68;101037.66;5069851;28;20203;-72
2021/05/01 02:01:31;;;;;;;18.27;8.05;;;8.20;99.90;;;9.19;76.78;101032.44;5067765;28;20201;-72
2021/05/01 02:03:57;;;;;;;19.52;7.57;;;8.20;99.90;;;9.23;76.77;101030.56;5060586;28;20200;-72
2021/05/01 02:06:23;;;;;;;16.92;7.50;;;8.30;99.90;;;9.21;76.65;101028.00;5066403;28;20227;-72
2021/05/01 02:08:49;;;;;;;16.77;8.05;;;8.30;99.90;;;9.22;76.81;101031.47;5058066;28;20205;-72
2021/05/01 02:11:16;;;;;;;15.40;7.38;;;8.30;99.90;;;9.18;76.95;101025.47;5068274;28;20572;-73
2021/05/01 02:13:44;;;;;;;18.00;7.72;;;8.30;99.90;;;9.20;76.92;101026.28;5069099;28;20188;-72
2021/05/01 02:16:12;;;;;;;20.63;7.53;;;8.30;99.90;;;9.16;76.81;101016.81;5073004;28;20218;-73
2021/05/01 02:18:38;;;;;;;17.05;7.95;;;8.40;99.90;;;9.19;76.73;101029.81;5074343;28;20194;-72
2021/05/01 02:21:05;;;;;;;20.67;7.47;;;8.40;99.90;;;9.19;76.98;101027.22;5065910;28;20728;-72
2021/05/01 02:23:31;;;;;;;15.80;7.40;;;8.40;99.90;;;9.23;76.88;101033.16;5074523;28;20274;-72
2021/05/01 02:25:57;;;;;;;22.15;9.07;;;8.40;99.90;;;9.27;76.63;101024.38;5066824;28;20207;-71
2021/05/01 02:28:24;;;;;;;17.38;7.32;;;8.40;99.90;;;9.28;76.75;101020.84;5062843;28;20223;-71
2021/05/01 02:30:51;;;;;;;17.15;7.38;;;8.40;99.90;;;9.27;76.67;101022.63;5060236;28;20233;-72
2021/05/01 02:33:17;;;;;;;18.25;7.40;;;8.40;99.90;;;9.24;76.65;101012.28;5059651;28;20196;-72
2021/05/01 02:35:43;;;;;;;14.57;7.13;;;8.40;99.90;;;9.22;76.90;101016.69;5057801;28;20706;-73
2021/05/01 02:38:10;;;;;;;18.52;7.68;;;8.40;99.90;;;9.20;76.59;101022.81;5059880;28;20665;-72
2021/05/01 02:40:37;;;;;;;16.38;8.10;;;8.40;99.90;;;9.16;76.84;101019.44;5063476;28;20231;-73
2021/05/01 02:43:06;;;;;;;16.88;7.97;;;8.40;99.90;;;9.15;77.11;101009.91;5062434;28;20201;-74
2021/05/01 02:45:32;;;;;;;17.85;8.13;;;8.40;99.90;;;9.20;76.92;101009.75;5067430;28;20207;-73
2021/05/01 02:48:00;;;;;;;20.83;7.82;;;8.40;99.90;;;9.24;76.68;101008.78;5063502;28;20188;-71
2021/05/01 02:50:27;;;;;;;17.30;7.65;;;8.40;99.90;;;9.25;76.65;101002.66;5058776;28;20219;-70
2021/05/01 02:52:53;;;;;;;18.42;8.07;;;8.40;99.90;;;9.24;76.66;100993.13;5061522;28;20203;-70
2021/05/01 02:55:20;;;;;;;17.65;7.45;;;8.40;99.90;;;9.23;76.60;100988.78;5065748;28;20188;-70
2021/05/01 02:57:48;;;;;;;17.00;7.63;;;8.40;99.90;;;9.21;76.58;100988.84;5065927;28;20184;-72
2021/05/01 03:00:19;;;;;;;16.98;7.75;;;8.30;99.90;;;9.20;76.47;100981.03;5067175;28;20715;-71
2021/05/01 03:02:46;;;;;;;15.75;6.80;;;8.30;99.90;;;9.20;76.18;100986.25;5065023;28;20227;-70
2021/05/01 03:05:16;;;;;;;17.50;8.25;;;8.30;99.90;;;9.19;76.38;100980.22;5069524;28;20252;-69
2021/05/01 03:07:43;;;;;;;17.92;8.13;;;8.20;99.90;;;9.20;76.35;100981.91;5071017;28;20200;-71
2021/05/01 03:10:16;;;;;;;15.90;7.30;;;8.20;99.90;;;9.18;76.42;100975.88;5071305;28;20247;-71
2021/05/01 03:12:42;;;;;;;18.30;8.35;;;8.20;99.90;;;9.15;76.19;100978.56;5066448;28;20211;-70
2021/05/01 03:15:12;;;;;;;17.50;8.23;;;8.20;99.90;;;9.13;76.38;100977.75;5065727;28;20196;-70
2021/05/01 03:17:39;;;;;;;17.25;7.85;;;8.20;99.90;;;9.12;76.46;100976.06;5069100;28;20212;-70
2021/05/01 03:20:08;;;;;;;23.45;9.35;;;8.10;99.90;;;9.08;76.29;100977.03;5066848;28;20220;-72
2021/05/01 03:22:35;;;;;;;19.98;8.55;;;8.10;99.90;;;9.11;76.43;100974.31;5066864;28;20227;-73
2021/05/01 03:25:02;;;;;;;16.42;8.13;;;8.10;99.90;;;9.07;76.36;100972.72;5070086;28;20195;-71
2021/05/01 03:27:28;;;;;;;19.50;8.27;;;8.10;99.90;;;9.04;76.31;100978.03;5066881;28;20188;-70
2021/05/01 03:29:55;;;;;;;21.60;8.63;;;8.00;99.90;;;9.03;76.58;100970.22;5063422;28;20230;-71
2021/05/01 03:32:21;;;;;;;17.92;8.77;;;8.00;99.90;;;9.03;76.42;100965.84;5065189;28;20208;-72
2021/05/01 03:34:47;;;;;;;22.98;8.10;;;8.00;99.90;;;9.02;76.48;100966.75;5061966;28;20208;-71
2021/05/01 03:37:13;;;;;;;17.90;8.48;;;8.00;99.90;;;9.02;76.61;100966.75;5068181;28;20275;-71
2021/05/01 03:39:41;;;;;;;17.70;8.43;;;8.00;99.90;;;9.03;76.60;100963.25;5070719;28;20195;-72
2021/05/01 03:42:08;;;;;;;19.08;8.70;;;8.00;99.90;;;9.07;76.63;100964.88;5069206;28;20206;-70
2021/05/01 03:44:35;;;;;;;16.60;8.25;;;8.00;99.90;;;9.11;76.71;100963.88;5069192;28;20219;-71
2021/05/01 03:47:02;;;;;;;18.17;8.15;;;8.10;99.90;;;9.14;76.68;100961.22;5068931;28;20659;-71
2021/05/01 03:49:28;;;;;;;20.25;7.97;;;8.10;99.90;;;9.16;76.43;100959.38;5059526;28;20725;-70
2021/05/01 03:51:55;;;;;;;21.15;8.55;;;8.10;99.90;;;9.17;76.25;100962.88;5055752;28;20707;-71
2021/05/01 03:54:21;;;;;;;20.48;8.95;;;8.20;99.90;;;9.18;76.53;100965.44;5052178;28;20193;-71
2021/05/01 03:56:49;;;;;;;22.58;10.25;;;8.20;99.90;;;9.16;76.62;100964.59;5054774;28;20287;-70
2021/05/01 03:59:15;;;;;;;26.20;10.18;;;8.20;99.90;;;9.16;76.42;100964.59;5069679;28;20196;-70
2021/05/01 04:01:41;;;;;;;21.13;9.27;;;8.20;99.90;;;9.15;76.65;100962.03;5055884;28;20263;-72
2021/05/01 04:04:09;;;;;;;20.23;8.88;;;8.20;99.90;;;9.12;76.54;100973.44;5066363;28;20196;-72
2021/05/01 04:06:36;;;;;;;21.52;9.70;;;8.20;99.90;;;9.08;76.85;100971.81;5058435;28;20220;-71
2021/05/01 04:09:03;;;;;;;17.85;8.52;;;8.20;99.90;;;9.02;76.92;100963.28;5062212;28;20203;-70
2021/05/01 04:11:29;;;;;;;19.77;9.55;;;8.20;99.90;;;8.99;77.11;100966.84;5061128;28;20211;-71
2021/05/01 04:13:56;;;;;;;19.88;9.82;;;8.10;99.90;;;9.00;77.46;100968.53;5062452;28;20234;-70
2021/05/01 04:16:23;;;;;;;17.33;8.82;;;8.10;99.90;;;9.03;77.42;100972.81;5068521;28;20212;-71
2021/05/01 04:18:50;;;;;;;20.17;8.82;;;8.10;99.90;;;9.04;77.41;100970.19;5070381;28;20577;-71
2021/05/01 04:21:17;;;;;;;20.85;9.85;;;8.10;99.90;;;9.05;77.24;100969.28;5064437;28;20587;-71
2021/05/01 04:23:44;;;;;;;20.80;9.05;;;8.20;99.90;;;9.05;77.41;100971.88;5060498;28;20233;-70
2021/05/01 04:26:10;;;;;;;19.35;9.80;;;8.20;99.90;;;9.06;77.34;100965.75;5059550;28;20203;-73
2021/05/01 04:28:37;;;;;;;20.63;9.25;;;8.20;99.90;;;9.07;77.57;100967.50;5070987;28;20199;-72
2021/05/01 04:31:04;;;;;;;26.45;9.85;;;8.20;99.90;;;9.07;77.31;100959.66;5068391;28;20222;-73
2021/05/01 04:33:31;;;;;;;21.60;9.50;;;8.20;99.90;;;9.11;77.68;100968.25;5061884;28;20196;-72
2021/05/01 04:35:57;;;;;;;18.60;9.07;;;8.30;99.90;;;9.12;77.50;100970.84;5057743;28;20208;-72
2021/05/01 04:38:25;;;;;;;21.08;9.50;;;8.30;99.90;;;9.18;77.49;100978.47;5067153;28;20197;-73
2021/05/01 04:40:52;;;;;;;20.10;9.02;;;8.40;99.90;;;9.22;77.49;100974.91;5062403;28;20217;-72
2021/05/01 04:43:23;;;;;;;20.30;9.75;;;8.50;99.90;;;9.26;77.20;100971.28;5069867;28;20192;-73
2021/05/01 04:45:49;;;;;;;22.92;9.65;;;8.50;99.90;;;9.27;77.19;100966.94;5071249;28;20531;-74
2021/05/01 04:48:17;;;;;;;22.92;9.52;;;8.50;99.90;;;9.24;77.04;100967.88;5067247;28;20192;-73
2021/05/01 04:50:43;;;;;;;23.02;9.55;;;8.50;99.90;;;9.31;77.28;100969.41;5069014;28;20229;-72
2021/05/01 04:53:09;;;;;;;23.70;9.43;;;8.50;99.90;;;9.35;77.05;100976.25;5065147;28;20184;-70
2021/05/01 04:55:36;;;;;;;24.20;10.10;;;8.60;99.90;;;9.41;76.68;100980.47;5067972;28;20192;-70
2021/05/01 04:58:02;;;;;;;23.23;10.52;;;8.60;99.90;;;9.46;76.66;100979.41;5069841;28;20255;-71
2021/05/01 05:00:28;;;;;;;22.10;9.65;;;8.70;99.90;;;9.49;76.29;100981.09;5066272;28;20251;-69
2021/05/01 05:02:54;;;;;;;24.15;9.55;;;8.70;99.90;;;9.46;76.46;100979.41;5067506;28;20197;-72
2021/05/01 05:05:21;;;;;;;21.70;9.20;;;8.70;99.90;;;9.48;76.49;100975.00;5081486;28;20242;-70
2021/05/01 05:07:48;;;;;;;23.58;9.82;;;8.70;99.90;;;9.50;76.38;100975.81;5070657;28;20306;-70
2021/05/01 05:10:15;;;;;;;22.92;10.50;;;8.70;99.90;;;9.52;76.33;100984.47;5071143;28;20208;-68
2021/05/01 05:12:42;;;;;;;20.85;9.98;;;8.70;99.90;;;9.52;75.97;100989.69;5068486;28;20596;-70
2021/05/01 05:15:10;;;;;;;24.20;10.27;;;8.60;99.90;;;9.50;76.07;100991.50;5068753;28;20273;-71
2021/05/01 05:17:37;;;;;;;21.38;9.38;;;8.70;99.90;;;9.52;76.09;100991.44;5069158;28;20216;-71
2021/05/01 05:20:04;;;;;;;21.20;10.02;;;8.70;99.90;;;9.46;76.27;100992.47;5067432;28;20212;-71
2021/05/01 05:22:32;;;;;;;20.40;9.63;;;8.60;99.90;;;9.38;76.69;100997.06;5065476;28;20196;-71
2021/05/01 05:24:58;;;;;;;21.23;9.20;;;8.60;99.90;;;9.36;76.86;100998.84;5069803;28;20189;-70
2021/05/01 05:27:24;;;;;;;21.67;9.90;;;8.60;99.90;;;9.40;76.74;100992.66;5071205;28;20215;-70
2021/05/01 05:29:51;;;;;;;23.42;9.73;;;8.60;99.90;;;9.43;76.80;100991.69;5060174;28;20188;-72
2021/05/01 05:32:18;;;;;;;20.45;9.77;;;8.70;99.90;;;9.45;76.80;100988.16;5072809;28;20184;-71
2021/05/01 05:34:46;;;;;;;25.38;11.27;;;8.70;99.90;;;9.51;77.08;100982.75;5065110;28;20210;-71
2021/05/01 05:37:12;;;;;;;24.05;10.23;;;8.80;99.90;;;9.57;76.45;100984.34;5077446;28;20204;-70
2021/05/01 05:39:40;;;;;;;21.10;10.25;;;8.80;99.90;;;9.55;76.04;100992.22;5069283;28;20222;-70
2021/05/01 05:42:08;;;;;;;23.17;10.07;;;8.80;99.90;;;9.58;76.40;100994.72;5055137;28;20195;-72
2021/05/01 05:44:35;;;;;;;21.08;10.10;;;8.80;99.90;;;9.58;76.10;100992.13;5063526;28;20188;-71
2021/05/01 05:47:02;;;;;;;23.33;10.43;;;8.80;99.90;;;9.57;76.29;100997.41;5059639;28;20204;-70
2021/05/01 05:49:29;;;;;;;22.95;9.52;;;8.80;99.90;;;9.58;76.28;100994.72;5058505;28;20192;-69
2021/05/01 05:51:55;;;;;;;20.95;9.73;;;8.80;99.90;;;9.56;76.51;101006.16;5064109;28;20220;-70
2021/05/01 05:54:22;;;;;;;24.33;11.15;;;8.90;99.90;;;9.53;76.71;101003.59;5057388;28;20189;-70
2021/05/01 05:56:49;;;;;;;23.80;10.40;;;8.90;99.90;;;9.54;76.79;101000.97;5079580;28;20231;-70
2021/05/01 05:59:15;;;;;;;20.88;9.77;;;8.90;99.90;;;9.64;76.65;101002.41;5057158;28;20879;-70
2021/05/01 06:01:46;;;;;;;25.48;10.77;;;8.90;99.90;;;9.69;76.33;101002.28;5059683;28;20232;-70
2021/05/01 06:04:17;;;;;;;23.73;10.05;;;8.90;99.90;;;9.72;76.09;100997.81;5061183;28;20202;-70
2021/05/01 06:06:57;;;;;;;23.80;10.50;;;9.00;99.90;;;9.72;75.96;100991.72;5058810;28;20199;-69
2021/05/01 06:09:24;;;;;;;25.00;11.52;;;9.00;99.90;;;9.69;76.29;100997.91;5060373;28;20571;-69
2021/05/01 06:11:54;;;;;;;28.60;10.82;;;9.00;99.90;;;9.74;76.34;100997.75;5066616;28;20303;-72
2021/05/01 06:14:23;;;;;;;22.85;10.63;;;9.00;99.90;;;9.76;75.88;100999.41;5064868;28;20196;-69
2021/05/01 06:16:50;;;;;;;25.30;11.25;;;9.00;99.90;;;9.76;76.05;101004.63;5068886;28;20217;-69
2021/05/01 06:19:16;;;;;;;25.30;11.27;;;9.00;99.90;;;9.73;75.89;101009.09;5057909;28;20203;-71
2021/05/01 06:21:43;;;;;;;24.25;10.82;;;9.00;99.90;;;9.69;76.40;101005.75;5057142;28;20209;-71
2021/05/01 06:24:10;;;;;;;26.45;11.27;;;9.00;99.90;;;9.71;76.41;101001.31;5078560;28;20192;-69
2021/05/01 06:26:39;;;;;;;24.98;10.30;;;9.00;99.90;;;9.75;76.64;100992.50;5060201;28;20189;-70
2021/05/01 06:29:06;;;;;;;26.52;10.98;;;9.10;99.90;;;9.80;76.22;100990.59;5060420;28;20201;-73
2021/05/01 06:31:36;;;;;;;23.00;10.57;;;9.10;99.90;;;9.79;75.94;100999.34;5061164;28;20216;-70
2021/05/01 06:34:04;;;;;;;20.88;10.82;;;9.10;99.90;;;9.75;76.17;100992.50;5061652;28;20558;-72
2021/05/01 06:36:32;;;;;;;25.15;11.35;;;9.10;99.90;;;9.74;76.37;101000.38;5059168;28;20225;-72
2021/05/01 06:39:02;;;;;;;26.38;11.32;;;9.10;99.90;;;9.75;76.11;101013.41;5056089;28;20234;-70
2021/05/01 06:41:43;;;;;;;26.25;11.45;;;9.10;99.90;;;9.77;75.93;101005.50;5057511;28;20769;-71
2021/05/01 06:44:17;;;;;;;23.92;11.25;;;9.00;99.90;;;9.77;76.36;101005.50;5060553;28;20318;-71
2021/05/01 06:46:49;;;;;;;27.38;10.93;;;9.10;99.90;;;9.77;76.15;101001.16;5065233;28;20199;-71
2021/05/01 06:49:30;;;;;;;24.85;10.88;;;9.10;99.90;;;9.77;76.23;101001.16;5055817;28;20281;-71
2021/05/01 06:52:03;;;;;;;30.33;12.07;;;9.10;99.90;;;9.75;76.30;101005.56;5065424;28;21212;-72
2021/05/01 06:54:31;;;;;;;28.40;11.45;;;9.00;99.90;;;9.77;76.37;101011.59;5065420;28;20189;-71
2021/05/01 06:56:58;;;;;;;22.40;10.65;;;9.10;99.90;;;9.83;76.07;101002.69;5059772;28;20234;-72
2021/05/01 06:59:27;;;;;;;26.02;11.45;;;9.10;99.90;;;9.86;76.20;101007.84;5060622;28;20188;-72
2021/05/01 07:01:54;;;;;;;26.02;10.90;;;9.20;99.90;;;9.85;76.45;100999.16;5071851;28;20212;-71
2021/05/01 07:04:20;;;;;;;23.95;10.68;;;9.10;99.90;;;9.83;76.20;101000.09;5065085;28;20194;-70
2021/05/01 07:06:49;;;;;;;24.73;11.10;;;9.20;99.90;;;9.80;76.45;101001.03;5065093;28;20192;-71
2021/05/01 07:09:16;;;;;;;23.58;10.90;;;9.20;99.90;;;9.80;76.55;101003.66;5075228;28;20195;-71
2021/05/01 07:11:42;;;;;;;23.88;11.15;;;9.20;99.90;;;9.82;76.36;101007.09;5070733;28;20241;-72
2021/05/01 07:14:10;;;;;;;26.20;12.48;;;9.20;99.90;;;9.82;76.48;101003.63;5072284;28;20196;-71
2021/05/01 07:16:40;;;;;;;24.00;10.98;;;9.20;99.90;;;9.84;76.52;101002.69;5067236;28;20630;-71
2021/05/01 07:19:09;;;;;;;25.88;12.02;;;9.20;99.90;;;9.88;76.25;101006.03;5061752;28;20197;-73
2021/05/01 07:21:35;;;;;;;24.10;11.88;;;9.20;99.90;;;9.96;76.25;101004.91;5059190;28;20213;-72
2021/05/01 07:24:03;;;;;;;22.83;10.93;;;9.30;99.90;;;9.99;76.04;101001.34;5072550;28;20223;-73
2021/05/01 07:26:35;;;;;;;27.98;11.35;;;9.40;99.90;;;10.04;76.20;101010.78;5080483;28;20592;-72
2021/05/01 07:29:05;;;;;;;24.23;11.77;;;9.40;99.90;;;10.08;76.02;101011.53;5070523;28;20196;-70
2021/05/01 07:31:33;;;;;;;26.85;11.93;;;9.50;99.90;;;10.07;75.76;101000.22;5071428;28;20216;-70
2021/05/01 07:34:02;;;;;;;25.98;12.30;;;9.60;99.90;;;10.08;75.57;101009.78;5068929;28;20216;-70
2021/05/01 07:36:38;;;;;;;25.63;12.43;;;9.50;99.90;;;10.13;75.64;101013.13;5066416;28;20204;-70
2021/05/01 07:39:09;;;;;;;26.17;11.35;;;9.60;99.90;;;10.17;75.19;101005.19;5067804;28;20202;-71
2021/05/01 07:41:39;;;;;;;28.52;11.63;;;9.60;99.90;;;10.15;75.34;101009.63;5062200;28;20622;-72
2021/05/01 07:44:08;;;;;;;28.63;12.18;;;9.50;99.90;;;10.15;75.04;101007.84;5069001;28;20219;-70
2021/05/01 07:46:37;;;;;;;28.48;12.32;;;9.60;99.90;;;10.17;75.11;101011.28;5064335;28;20198;-71
2021/05/01 07:49:06;;;;;;;26.60;12.43;;;9.60;99.90;;;10.26;75.20;101007.50;5068121;28;20213;-70
2021/05/01 07:51:35;;;;;;;32.42;13.57;;;9.60;99.90;;;10.29;74.98;101007.41;5064291;28;20227;-73
2021/05/01 07:54:01;;;;;;;27.05;11.48;;;9.70;99.90;;;10.35;74.89;101002.84;5067531;28;20254;-72
2021/05/01 07:56:28;;;;;;;21.27;10.32;;;9.80;99.90;;;10.44;74.35;100999.94;5064939;28;20208;-69
2021/05/01 07:58:55;;;;;;;23.63;10.77;;;9.90;99.90;;;10.54;74.60;101008.34;5067557;28;20197;-70
2021/05/01 08:01:22;;;;;;;26.38;11.10;;;10.00;99.90;;;10.66;74.46;101010.56;5069846;28;20295;-70
2021/05/01 08:03:48;;;;;;;25.98;10.95;;;10.20;99.90;;;10.70;73.86;101005.16;5064704;28;20208;-71
2021/05/01 08:06:17;;;;;;;27.13;11.68;;;10.30;99.90;;;10.72;73.96;101008.59;5068713;28;20185;-71
2021/05/01 08:08:43;;;;;;;25.10;11.25;;;10.30;99.90;;;10.77;73.75;101006.66;5069402;28;20193;-71
2021/05/01 08:11:10;;;;;;;24.80;10.60;;;10.40;99.90;;;10.85;73.41;101004.63;5071125;28;20224;-70
2021/05/01 08:13:36;;;;;;;22.70;10.25;;;10.50;99.90;;;10.91;73.03;100998.34;5064311;28;20180;-72
2021/05/01 08:16:03;;;;;;;26.05;11.18;;;10.60;99.90;;;10.91;72.50;100993.97;5070178;28;20216;-70
2021/05/01 08:18:29;;;;;;;25.60;10.98;;;10.50;99.90;;;10.93;72.55;101001.78;5074986;28;20199;-68
2021/05/01 08:20:55;;;;;;;24.23;10.82;;;10.50;99.90;;;10.96;72.61;100985.94;5069226;28;20597;-70
2021/05/01 08:23:22;;;;;;;27.77;11.30;;;10.60;99.90;;;11.05;72.56;100986.47;5075052;28;20654;-70
2021/05/01 08:25:49;;;;;;;24.42;11.45;;;10.70;99.90;;;11.18;72.01;100986.91;5069711;28;20210;-69
2021/05/01 08:28:16;;;;;;;23.75;10.45;;;10.80;99.90;;;11.31;71.41;100980.31;5079790;28;20410;-69
2021/05/01 08:30:42;;;;;;;24.55;11.80;;;10.90;99.90;;;11.45;71.12;100980.69;5068188;28;20211;-69
2021/05/01 08:33:08;;;;;;;23.77;11.13;;;11.10;99.90;;;11.61;70.67;100987.06;5074523;28;20193;-69
2021/05/01 08:35:35;;;;;;;24.27;11.18;;;11.20;99.90;;;11.83;70.54;100984.50;5077073;28;20196;-69
2021/05/01 08:38:01;;;;;;;23.80;10.77;;;11.50;99.90;;;12.08;69.98;100980.88;5075988;28;20212;-68
2021/05/01 08:40:30;;;;;;;23.42;11.13;;;11.80;99.90;;;12.22;68.60;100981.16;5073590;28;20208;-69
2021/05/01 08:42:56;;;;;;;21.88;10.60;;;12.00;99.90;;;12.26;68.83;100979.28;5079211;28;20192;-70
2021/05/01 08:45:27;;;;;;;24.95;11.60;;;12.10;99.90;;;12.35;68.70;100985.03;5078328;28;21097;-69
2021/05/01 08:47:53;;;;;;;21.52;10.80;;;12.40;99.90;;;12.53;68.28;100984.28;5077801;28;20197;-70
2021/05/01 08:50:38;;;;;;;21.15;10.60;;;12.60;99.90;;;12.67;67.01;100967.94;5062809;28;20291;-67
2021/05/01 08:53:06;;;;;;;21.92;9.68;;;12.60;99.90;;;12.71;66.36;100966.03;5064444;28;20185;-69
2021/05/01 08:55:38;;;;;;;20.08;9.43;;;12.60;99.90;;;12.66;64.61;100966.22;5074912;28;20243;-68
2021/05/01 08:58:06;;;;;;;24.40;11.27;;;12.50;99.90;;;12.57;64.98;100972.69;5076946;28;21473;-69
2021/05/01 09:00:35;;;;;;;20.80;10.52;;;12.50;99.90;;;12.50;65.27;100968.66;5074259;28;20212;-69
2021/05/01 09:03:04;;;;;;;21.95;10.70;;;12.40;99.90;;;12.50;65.84;100970.41;5063698;28;20220;-68
2021/05/01 09:05:32;;;;;;;18.05;9.10;;;12.30;99.90;;;12.66;66.02;100968.84;5075735;28;20215;-70
2021/05/01 09:07:59;;;;;;;19.40;9.55;;;12.40;99.90;;;12.62;65.17;100964.66;5079756;28;20688;-70
2021/05/01 09:10:27;;;;;;;21.33;9.50;;;12.30;99.90;;;12.76;65.13;100972.78;5072375;28;20207;-69
2021/05/01 09:12:55;;;;;;;20.10;9.27;;;12.50;99.90;;;12.95;64.86;100965.84;5072645;28;20196;-68
2021/05/01 09:15:23;;;;;;;23.13;9.80;;;12.80;99.90;;;13.13;64.06;100953.72;5076020;28;20192;-68
2021/05/01 09:17:59;;;;;;;22.17;10.75;;;13.10;99.90;;;13.06;64.04;100963.63;5072628;28;20308;-72
2021/05/01 09:20:26;;;;;;;22.65;10.38;;;13.20;99.90;;;12.94;64.63;100964.16;5065580;28;20242;-67
2021/05/01 09:22:57;;;;;;;22.00;10.93;;;13.10;99.90;;;13.01;64.20;100962.97;5066366;28;20196;-70
2021/05/01 09:25:25;;;;;;;21.60;11.07;;;13.10;99.90;;;13.08;64.44;100968.84;5063751;28;20264;-69
2021/05/01 09:28:10;;;;;;;21.63;10.85;;;13.10;99.90;;;13.20;63.68;100960.38;5067546;28;20185;-70
2021/05/01 09:30:39;;;;;;;21.45;10.57;;;13.10;99.90;;;13.25;63.00;100953.16;5072377;28;20274;-71
2021/05/01 09:33:22;;;;;;;23.52;10.60;;;13.10;99.90;;;13.19;62.37;100949.06;5070957;28;20281;-70
2021/05/01 09:35:53;;;;;;;22.50;10.65;;;12.90;99.90;;;13.34;62.68;100950.13;5070726;28;20664;-70
2021/05/01 09:38:19;;;;;;;22.08;10.85;;;13.10;99.90;;;13.39;62.26;100950.78;5072595;28;20202;-70
2021/05/01 09:40:47;;;;;;;19.73;10.13;;;13.20;99.90;;;13.41;62.12;100944.50;5075242;28;20226;-70
2021/05/01 09:43:16;;;;;;;20.63;10.15;;;13.20;99.90;;;13.41;62.05;100946.31;5074178;28;20656;-72
2021/05/01 09:45:43;;;;;;;21.10;10.38;;;13.20;99.90;;;13.36;61.07;100940.41;5070704;28;20235;-71
2021/05/01 09:48:19;;;;;;;20.88;9.57;;;13.20;99.90;;;13.48;61.62;100943.31;5069513;28;20240;-71
2021/05/01 09:50:47;;;;;;;21.52;9.95;;;13.40;99.90;;;13.60;61.21;100945.38;5068340;28;20219;-70
2021/05/01 09:53:18;;;;;;;19.48;9.95;;;13.60;99.90;;;13.71;61.02;100937.00;5071048;28;20210;-69
2021/05/01 09:55:51;;;;;;;21.05;10.15;;;13.80;99.90;;;13.80;60.87;100933.91;5067295;28;20345;-71
2021/05/01 09:58:22;;;;;;;19.27;9.60;;;13.80;99.90;;;13.65;59.70;100924.97;5072169;28;20196;-69
2021/05/01 10:00:51;;;;;;;20.13;9.38;;;13.60;99.90;;;13.65;60.17;100932.00;5067363;28;20212;-69
2021/05/01 10:03:25;;;;;;;17.77;9.52;;;13.70;99.90;;;13.76;59.88;100929.75;5065700;28;20216;-69
2021/05/01 10:05:55;;;;;;;22.33;10.20;;;13.90;99.90;;;13.82;59.49;100934.72;5070315;28;20696;-69
2021/05/01 10:08:30;;;;;;;20.98;10.02;;;13.80;99.90;;;13.83;59.04;100934.63;5068295;28;20210;-70
2021/05/01 10:10:58;;;;;;;23.10;10.57;;;13.80;99.90;;;13.83;58.92;100932.00;5072172;28;20290;-70
2021/05/01 10:13:25;;;;;;;22.45;10.70;;;13.70;99.90;;;13.73;59.18;100927.28;5072794;28;20188;-69
2021/05/01 10:15:53;;;;;;;21.58;9.75;;;13.60;99.90;;;13.62;60.10;100930.41;5068888;28;20728;-67